Albert, New Mexico
Current Conditions -  °F | °C
As of 12:53 PM on Friday 24 Oct 2014 (Local Time) from KTCC Reporting Station
Clear Clear  
Wind Chill: 27°   Ceiling: Unl
Heat Index: 27°   Visibility: 10mi
Dew Point:   Wind: 0mph
Humidity: 21%   Direction: NA
Pressure: 30.14"   Gusts: NA
Location:  35.7181°N, 103.591°W
Report Text: KTCC 241853Z AUTO 00000KT 10SM CLR 27/03 A3014 RMK AO2 SLP159 T02720033
Loading
Personal Weather Stations






























Interactive Weather Map
Tropical Storm Tracking
New forecast layout! Learn more

10-Day Weather Forecast

Advertisements
Track Severe Weather on mobile